Terminal Aerodrome Forecast
Issued by NWS

Home | Current Version | Previous Version | Text Only | Print | Product List | Glossary On
Versions: 1 2 3 4 5 6 7 8 9 10 11 12 13 14 15 16 17
000
FTUS44 KLIX 061121
TAFMCB
TAF
KMCB 061121Z 0612/0712 28009KT 3SM BR OVC006
     FM061600 27008KT P6SM BKN012
     FM062100 30005KT P6SM BKN025
     FM070400 VRB03KT P6SM SCT015 BKN020=

USA.gov is the U.S. government's official web portal to all federal, state and local government web resources and services.